Time;durP1;ratioP1;P1;durP2;ratioP2;P2;SDS_P1;SDS_P2;PMS_P1;PMS_P2;Temp;Humidity;BMP_temperature;BMP_pressure;BME280_temperature;BME280_humidity;BME280_pressure;Samples;Min_cycle;Max_cycle;Signal;HPM_P1;HPM_P2
2023/02/20 00:01:02;;;;;;;9.60;2.65;;;9.20;39.40;;;;;;5072331;28;20430;-56
2023/02/20 00:03:29;;;;;;;9.35;3.10;;;9.20;99.90;;;;;;5071722;28;20391;-56
2023/02/20 00:05:55;;;;;;;12.25;2.50;;;9.20;99.90;;;;;;5071550;28;20384;-56
2023/02/20 00:08:22;;;;;;;10.70;2.60;;;9.20;99.90;;;;;;5071604;28;20783;-57
2023/02/20 00:10:48;;;;;;;9.32;2.60;;;9.30;1.00;;;;;;5071378;28;20391;-57
2023/02/20 00:13:14;;;;;;;10.02;2.50;;;9.30;1.00;;;;;;5070737;28;20408;-57
2023/02/20 00:15:39;;;;;;;9.90;2.60;;;9.20;24.00;;;;;;5071386;28;20872;-57
2023/02/20 00:18:06;;;;;;;9.63;2.90;;;9.10;99.90;;;;;;5071953;28;20383;-57
2023/02/20 00:20:32;;;;;;;9.00;3.00;;;8.90;99.90;;;;;;5071226;28;20376;-57
2023/02/20 00:22:58;;;;;;;11.65;2.53;;;8.90;99.90;;;;;;5072012;28;20394;-56
2023/02/20 00:25:23;;;;;;;11.33;2.60;;;8.80;1.00;;;;;;5071307;28;20419;-56
2023/02/20 00:27:49;;;;;;;11.23;3.10;;;9.60;1.00;;;;;;5069673;28;20406;-57
2023/02/20 00:30:23;;;;;;;8.20;2.55;;;8.80;1.00;;;;;;5071969;28;20386;-57
2023/02/20 00:32:52;;;;;;;9.20;2.70;;;8.80;1.00;;;;;;5071068;28;20399;-57
2023/02/20 00:35:19;;;;;;;8.00;2.88;;;8.80;99.90;;;;;;5071304;28;20478;-57
2023/02/20 00:37:45;;;;;;;7.07;2.63;;;8.60;99.90;;;;;;5070801;28;20858;-57
2023/02/20 00:40:12;;;;;;;10.95;2.67;;;8.50;99.90;;;;;;5091813;28;20505;-56
2023/02/20 00:42:38;;;;;;;13.15;2.75;;;8.40;99.90;;;;;;5086359;28;20511;-57
2023/02/20 00:45:04;;;;;;;11.00;3.30;;;8.90;99.90;;;;;;5070941;28;20848;-56
2023/02/20 00:47:30;;;;;;;11.90;2.70;;;8.40;99.90;;;;;;5071367;28;20444;-57
2023/02/20 00:49:55;;;;;;;9.80;2.77;;;9.30;99.90;;;;;;5090122;28;20402;-57
2023/02/20 00:52:21;;;;;;;8.50;2.10;;;9.90;99.90;;;;;;5091380;28;20402;-56
2023/02/20 00:54:46;;;;;;;8.07;2.42;;;8.30;99.90;;;;;;5090427;28;20916;-57
2023/02/20 00:57:14;;;;;;;9.27;2.80;;;9.30;13.10;;;;;;5091064;28;20382;-57
2023/02/20 00:59:39;;;;;;;9.43;2.83;;;8.20;99.90;;;;;;5089858;28;20390;-56
2023/02/20 01:02:05;;;;;;;9.05;2.67;;;8.20;1.00;;;;;;5091689;28;20877;-57
2023/02/20 01:04:31;;;;;;;11.03;3.20;;;8.10;1.00;;;;;;5091054;28;20416;-57
2023/02/20 01:06:56;;;;;;;9.80;3.00;;;6.90;1.00;;;;;;5091049;28;20375;-56
2023/02/20 01:09:22;;;;;;;9.30;2.80;;;8.10;99.90;;;;;;5090873;28;20397;-57
2023/02/20 01:11:47;;;;;;;11.63;2.70;;;8.10;1.00;;;;;;5090347;28;20401;-56
2023/02/20 01:14:13;;;;;;;7.33;2.90;;;7.40;99.90;;;;;;5091421;28;20473;-57
2023/02/20 01:16:47;;;;;;;10.73;3.17;;;8.00;1.00;;;;;;5090034;28;20417;-56
2023/02/20 01:19:12;;;;;;;8.75;2.63;;;7.80;1.00;;;;;;5090608;28;20395;-56
2023/02/20 01:21:38;;;;;;;9.80;2.90;;;7.80;1.00;;;;;;5090292;28;20392;-56
2023/02/20 01:24:04;;;;;;;7.70;2.90;;;7.80;1.00;;;;;;5090930;28;20382;-56
2023/02/20 01:26:29;;;;;;;9.00;2.78;;;7.70;1.00;;;;;;5090202;28;20481;-57
2023/02/20 01:28:55;;;;;;;10.37;2.57;;;7.60;1.00;;;;;;5090225;28;20385;-57
2023/02/20 01:31:20;;;;;;;8.57;2.67;;;7.80;1.00;;;;;;5090976;28;20385;-56
2023/02/20 01:33:46;;;;;;;7.70;2.50;;;7.30;99.90;;;;;;5089490;28;20402;-57
2023/02/20 01:36:12;;;;;;;11.32;3.15;;;8.20;14.80;;;;;;5090611;28;20783;-57
2023/02/20 01:38:41;;;;;;;9.52;3.17;;;7.10;99.90;;;;;;5088277;28;20397;-57
2023/02/20 01:41:11;;;;;;;10.70;3.30;;;7.10;99.90;;;;;;5090400;28;20386;-57
2023/02/20 01:43:37;;;;;;;10.70;3.40;;;7.40;16.40;;;;;;5088113;28;20804;-57
2023/02/20 01:46:28;;;;;;;11.35;3.17;;;7.10;99.90;;;;;;5090737;28;20444;-56
2023/02/20 01:49:10;;;;;;;9.68;3.45;;;7.10;1.00;;;;;;5089584;28;20443;-56
2023/02/20 01:51:41;;;;;;;8.90;2.90;;;7.10;25.30;;;;;;5089425;28;20423;-56
2023/02/20 01:54:11;;;;;;;9.77;2.72;;;6.90;99.90;;;;;;5089926;28;20416;-56
2023/02/20 01:56:37;;;;;;;10.52;3.25;;;6.80;1.00;;;;;;5087150;28;20378;-56
2023/02/20 01:59:05;;;;;;;10.05;3.65;;;6.80;1.00;;;;;;5090081;28;20484;-56
2023/02/20 02:01:32;;;;;;;8.65;3.40;;;7.80;1.00;;;;;;5088748;28;20895;-56
2023/02/20 02:04:03;;;;;;;8.32;3.25;;;6.80;99.90;;;;;;5090292;28;20411;-56
2023/02/20 02:06:30;;;;;;;9.07;3.00;;;8.30;1.00;;;;;;5090039;28;20379;-56
2023/02/20 02:09:01;;;;;;;6.93;3.00;;;6.80;1.00;;;;;;5089787;28;20393;-56
2023/02/20 02:11:27;;;;;;;12.48;3.35;;;7.20;99.90;;;;;;5089530;28;20386;-57
2023/02/20 02:13:53;;;;;;;10.25;2.80;;;6.70;1.00;;;;;;5088886;28;20433;-56
2023/02/20 02:16:52;;;;;;;9.40;2.83;;;6.60;99.90;;;;;;5089440;28;20424;-56
2023/02/20 02:19:23;;;;;;;9.48;3.90;;;6.70;99.90;;;;;;5089565;28;20936;-57
2023/02/20 02:22:18;;;;;;;11.40;3.30;;;6.70;29.30;;;;;;5089314;28;20444;-56
2023/02/20 02:25:07;;;;;;;10.38;3.97;;;6.70;27.40;;;;;;5088763;28;20513;-56
2023/02/20 02:27:38;;;;;;;9.90;3.30;;;7.90;1.00;;;;;;5089458;28;20393;-56
2023/02/20 02:30:34;;;;;;;11.13;3.33;;;6.70;1.00;;;;;;5089817;28;20507;-56
2023/02/20 02:33:24;;;;;;;9.88;2.95;;;6.60;57.70;;;;;;5089516;28;20897;-56
2023/02/20 02:36:10;;;;;;;8.98;2.90;;;6.60;99.90;;;;;;5087479;28;20473;-57
2023/02/20 02:38:46;;;;;;;9.43;3.00;;;6.40;99.90;;;;;;5088569;28;20451;-56
2023/02/20 02:41:23;;;;;;;9.70;2.55;;;6.30;1.00;;;;;;5089593;28;20455;-56
2023/02/20 02:44:13;;;;;;;9.00;3.25;;;6.40;99.90;;;;;;5088611;28;20378;-56
2023/02/20 02:46:44;;;;;;;8.55;2.65;;;6.50;99.90;;;;;;5088825;28;20378;-56
2023/02/20 02:49:26;;;;;;;9.82;3.85;;;6.50;1.00;;;;;;5089864;28;20418;-56
2023/02/20 02:51:54;;;;;;;11.05;3.22;;;6.40;99.90;;;;;;5087289;28;20625;-56
2023/02/20 02:54:25;;;;;;;8.87;3.20;;;6.30;99.90;;;;;;5089251;28;20394;-56
2023/02/20 02:56:52;;;;;;;10.00;3.83;;;6.50;99.90;;;;;;5088747;28;20402;-57
2023/02/20 02:59:31;;;;;;;10.95;3.72;;;7.00;1.00;;;;;;5089103;28;20446;-57
2023/02/20 03:02:04;;;;;;;10.90;3.33;;;6.30;1.00;;;;;;5088801;28;20390;-56
2023/02/20 03:04:31;;;;;;;10.68;3.40;;;6.30;1.00;;;;;;5089108;28;20431;-56
2023/02/20 03:07:02;;;;;;;13.57;4.20;;;6.30;1.00;;;;;;5090395;28;20370;-57
2023/02/20 03:09:39;;;;;;;11.70;3.38;;;6.30;1.00;;;;;;5092935;28;20389;-56
2023/02/20 03:12:06;;;;;;;10.85;3.30;;;6.30;1.00;;;;;;5093079;28;20767;-56
2023/02/20 03:17:30;;;;;;;10.07;3.40;;;6.30;1.00;;;;;;5093488;28;20405;-57
2023/02/20 03:20:06;;;;;;;10.05;3.45;;;6.30;1.00;;;;;;5091502;28;20400;-57
2023/02/20 03:22:40;;;;;;;11.20;3.20;;;6.30;1.00;;;;;;5083606;28;21188;-57
2023/02/20 03:25:25;;;;;;;10.27;3.47;;;6.90;1.00;;;;;;5062076;28;20429;-56
2023/02/20 03:28:04;;;;;;;13.52;3.63;;;6.40;1.00;;;;;;5067584;28;20417;-57
2023/02/20 03:30:56;;;;;;;12.23;3.77;;;6.30;1.00;;;;;;5086716;28;20401;-56
2023/02/20 03:44:43;;;;;;;12.45;3.35;;;6.60;1.00;;;;;;5092172;28;20450;-56
2023/02/20 03:47:12;;;;;;;12.15;3.55;;;6.80;1.00;;;;;;5092857;28;20374;-56
2023/02/20 03:49:41;;;;;;;12.18;2.97;;;7.40;99.90;;;;;;5091909;28;20401;-56
2023/02/20 03:52:08;;;;;;;9.15;3.63;;;7.10;99.90;;;;;;5091368;28;20444;-55
2023/02/20 03:54:35;;;;;;;8.82;2.88;;;8.30;1.00;;;;;;5091926;28;20409;-56
2023/02/20 03:57:25;;;;;;;10.90;3.40;;;7.30;99.90;;;;;;5092646;28;20402;-56
2023/02/20 03:59:58;;;;;;;12.60;3.03;;;7.40;1.00;;;;;;5091696;28;20398;-56
2023/02/20 04:02:26;;;;;;;10.57;2.70;;;7.30;1.00;;;;;;5092433;28;20398;-56
2023/02/20 04:04:56;;;;;;;9.50;2.75;;;7.40;99.90;;;;;;5091525;28;20382;-58
2023/02/20 04:07:27;;;;;;;8.27;2.78;;;8.20;1.00;;;;;;5067823;28;20431;-57
2023/02/20 04:09:56;;;;;;;12.30;2.80;;;7.20;99.90;;;;;;5073103;28;20432;-57
2023/02/20 04:12:25;;;;;;;7.53;2.50;;;7.90;1.00;;;;;;5075226;28;20909;-57
2023/02/20 04:14:54;;;;;;;9.35;2.85;;;7.10;1.00;;;;;;5071617;28;20422;-56
2023/02/20 04:17:24;;;;;;;7.50;2.50;;;7.00;1.00;;;;;;5080305;28;20406;-58
2023/02/20 04:19:50;;;;;;;9.98;2.80;;;6.90;99.90;;;;;;5090544;28;20481;-58
2023/02/20 04:22:28;;;;;;;9.23;2.90;;;6.90;99.90;;;;;;5092013;28;20474;-59
2023/02/20 04:24:58;;;;;;;8.70;2.70;;;6.80;1.00;;;;;;5090995;28;20446;-59
2023/02/20 04:27:24;;;;;;;10.00;2.92;;;6.80;1.00;;;;;;5091587;28;20398;-59
2023/02/20 04:29:50;;;;;;;8.60;2.65;;;6.80;1.00;;;;;;5090077;28;20393;-59
2023/02/20 04:32:16;;;;;;;6.20;2.55;;;6.70;1.00;;;;;;5071996;28;20415;-58
2023/02/20 04:34:41;;;;;;;7.33;2.60;;;6.60;99.90;;;;;;5085159;28;20394;-58
2023/02/20 04:37:10;;;;;;;9.90;2.40;;;6.60;99.90;;;;;;5091913;28;20862;-58
2023/02/20 04:39:36;;;;;;;9.30;3.10;;;7.30;1.00;;;;;;5091300;28;20394;-58
2023/02/20 04:42:02;;;;;;;9.02;3.10;;;6.50;99.90;;;;;;5061921;28;20405;-58
2023/02/20 04:44:31;;;;;;;10.73;3.40;;;6.60;99.90;;;;;;5050238;28;20390;-58
2023/02/20 04:47:01;;;;;;;6.47;2.17;;;6.80;1.00;;;;;;5050754;28;20755;-56
2023/02/20 04:49:27;;;;;;;8.85;3.08;;;6.60;99.90;;;;;;5087458;28;20397;-57
2023/02/20 04:51:53;;;;;;;8.40;2.53;;;7.60;99.90;;;;;;5090499;28;21232;-56
2023/02/20 04:54:19;;;;;;;9.57;2.90;;;7.00;99.90;;;;;;5091683;28;20465;-56
2023/02/20 04:56:45;;;;;;;7.75;2.72;;;6.50;99.90;;;;;;5090851;28;20842;-57
2023/02/20 04:59:11;;;;;;;8.30;2.70;;;6.50;99.90;;;;;;5091668;28;20479;-57
2023/02/20 05:01:37;;;;;;;9.02;2.80;;;6.40;99.90;;;;;;5090595;28;20489;-56
2023/02/20 05:04:03;;;;;;;7.97;3.00;;;6.20;99.90;;;;;;5091272;28;20408;-57
2023/02/20 05:06:29;;;;;;;9.50;3.00;;;6.10;1.00;;;;;;5091648;28;20934;-56
2023/02/20 05:08:55;;;;;;;9.93;2.90;;;7.70;1.00;;;;;;5089199;28;20514;-56
2023/02/20 05:11:21;;;;;;;10.50;3.53;;;5.80;1.00;;;;;;5091136;28;20473;-56
2023/02/20 05:13:47;;;;;;;9.90;3.30;;;5.80;1.00;;;;;;5090485;28;20501;-56
2023/02/20 05:16:13;;;;;;;10.27;3.50;;;5.70;23.40;;;;;;5078897;28;20398;-56
2023/02/20 05:18:39;;;;;;;10.60;3.30;;;7.00;99.90;;;;;;5084867;28;20385;-57
2023/02/20 05:23:49;;;;;;;9.70;3.13;;;5.70;99.90;;;;;;5090460;28;20428;-56
2023/02/20 05:26:20;;;;;;;9.00;3.10;;;7.20;84.90;;;;;;5086493;28;20425;-56
2023/02/20 05:28:46;;;;;;;12.90;3.60;;;5.60;1.00;;;;;;5090115;28;20382;-56
2023/02/20 05:31:12;;;;;;;9.02;2.70;;;6.10;1.00;;;;;;5079057;28;20380;-56
2023/02/20 05:33:37;;;;;;;9.85;3.67;;;7.50;1.00;;;;;;5079273;28;20405;-56
2023/02/20 05:36:04;;;;;;;10.35;3.25;;;5.60;1.00;;;;;;5090601;28;20780;-56
2023/02/20 05:38:32;;;;;;;10.30;3.08;;;5.60;1.00;;;;;;5089847;28;20450;-56
2023/02/20 05:40:57;;;;;;;8.10;3.00;;;6.50;1.00;;;;;;5089929;28;20421;-56
2023/02/20 05:43:23;;;;;;;8.50;2.77;;;6.80;1.00;;;;;;5083060;28;20396;-56
2023/02/20 05:45:48;;;;;;;11.80;3.03;;;5.60;99.90;;;;;;5089908;28;20373;-56
2023/02/20 05:48:14;;;;;;;10.32;2.67;;;7.00;99.90;;;;;;5090210;28;20522;-56
2023/02/20 05:50:40;;;;;;;10.23;3.10;;;5.50;1.00;;;;;;5089619;28;20382;-56
2023/02/20 05:53:07;;;;;;;10.63;3.50;;;5.50;1.00;;;;;;5090510;28;20806;-56
2023/02/20 05:55:32;;;;;;;8.27;3.28;;;6.60;1.00;;;;;;5090170;28;20463;-56
2023/02/20 05:57:58;;;;;;;9.13;3.50;;;5.50;1.00;;;;;;5089470;28;20398;-56
2023/02/20 06:00:24;;;;;;;7.82;3.10;;;5.40;99.90;;;;;;5090248;28;20968;-56
2023/02/20 06:02:50;;;;;;;11.20;3.13;;;5.40;99.90;;;;;;5085998;28;20410;-57
2023/02/20 06:05:16;;;;;;;11.00;3.67;;;5.60;1.00;;;;;;5077840;28;20388;-56
2023/02/20 06:07:45;;;;;;;8.47;3.20;;;5.40;1.00;;;;;;5056182;28;20451;-56
2023/02/20 06:10:11;;;;;;;8.90;3.30;;;6.20;99.90;;;;;;5049840;28;20382;-56
2023/02/20 06:12:37;;;;;;;11.85;3.70;;;5.90;99.90;;;;;;5049661;28;20410;-56
2023/02/20 06:15:03;;;;;;;8.60;3.10;;;5.60;99.90;;;;;;5058893;28;20440;-56
2023/02/20 06:17:31;;;;;;;10.75;3.22;;;5.10;99.90;;;;;;5081868;28;20474;-56
2023/02/20 06:19:57;;;;;;;10.67;3.87;;;5.10;99.90;;;;;;5064238;28;20474;-56
2023/02/20 06:22:23;;;;;;;10.00;3.30;;;5.00;99.90;;;;;;5064036;28;20451;-56
2023/02/20 06:24:49;;;;;;;9.80;3.53;;;5.10;99.90;;;;;;5088587;28;20817;-56
2023/02/20 06:27:16;;;;;;;12.80;3.40;;;4.90;99.90;;;;;;5089721;28;20485;-56
2023/02/20 06:29:42;;;;;;;9.40;3.25;;;4.90;99.90;;;;;;5087535;28;20429;-56
2023/02/20 06:32:08;;;;;;;10.85;3.35;;;4.90;1.00;;;;;;5073414;28;20898;-55
2023/02/20 06:34:33;;;;;;;10.50;3.47;;;5.20;1.00;;;;;;5076212;28;20404;-56
2023/02/20 06:37:01;;;;;;;9.30;3.40;;;4.90;1.00;;;;;;5060735;28;20395;-56
2023/02/20 06:39:28;;;;;;;9.20;3.78;;;5.00;1.00;;;;;;5066877;28;20880;-55
2023/02/20 06:41:54;;;;;;;9.98;3.20;;;5.20;1.00;;;;;;5076214;28;20903;-55
2023/02/20 06:44:20;;;;;;;10.93;4.00;;;5.30;1.00;;;;;;5079721;28;20390;-56
2023/02/20 06:46:47;;;;;;;8.90;3.23;;;5.20;1.00;;;;;;5088652;28;20417;-56
2023/02/20 06:49:13;;;;;;;10.40;3.60;;;5.40;1.00;;;;;;5089628;28;20388;-55
2023/02/20 06:51:39;;;;;;;9.00;3.40;;;6.30;1.00;;;;;;5089026;28;20374;-56
2023/02/20 06:54:06;;;;;;;10.65;3.63;;;5.70;1.00;;;;;;5089159;28;20436;-58
2023/02/20 06:56:34;;;;;;;10.75;4.05;;;5.70;1.00;;;;;;5089695;28;20375;-58
2023/02/20 06:59:00;;;;;;;10.80;3.90;;;7.20;1.00;;;;;;5088385;28;20830;-58
2023/02/20 07:01:29;;;;;;;10.33;3.60;;;6.20;99.90;;;;;;5088992;28;20794;-58
2023/02/20 07:03:56;;;;;;;15.10;4.00;;;8.10;99.90;;;;;;5080656;28;20490;-58
2023/02/20 07:06:23;;;;;;;11.90;4.40;;;6.30;1.00;;;;;;5064585;28;20756;-59
2023/02/20 07:08:49;;;;;;;11.05;4.13;;;6.80;99.90;;;;;;5080708;28;20386;-56
2023/02/20 07:11:18;;;;;;;10.88;3.90;;;7.40;99.90;;;;;;5070656;28;20433;-56
2023/02/20 07:13:44;;;;;;;9.45;3.75;;;8.50;99.90;;;;;;5083706;28;20407;-56
2023/02/20 07:16:09;;;;;;;8.02;3.00;;;9.30;99.90;;;;;;5083751;28;20401;-56
2023/02/20 07:18:35;;;;;;;8.83;3.57;;;10.40;99.90;;;;;;5089134;28;20863;-57
2023/02/20 07:21:01;;;;;;;11.90;3.70;;;11.20;1.00;;;;;;5088160;28;20386;-57
2023/02/20 07:23:26;;;;;;;10.77;3.30;;;11.70;1.00;;;;;;5074732;28;20419;-57
2023/02/20 07:25:52;;;;;;;8.40;3.37;;;12.30;1.00;;;;;;5068135;28;20720;-57
2023/02/20 07:28:18;;;;;;;8.13;3.40;;;12.90;1.00;;;;;;5078398;28;20469;-57
2023/02/20 07:30:45;;;;;;;7.32;3.22;;;;;;;;;;5088358;28;20431;-57
2023/02/20 07:33:11;;;;;;;8.20;2.92;;;;;;;;;;5088950;28;20883;-57
2023/02/20 07:35:37;;;;;;;9.68;3.10;;;15.30;1.00;;;;;;5088474;28;20856;-57
2023/02/20 07:38:03;;;;;;;8.80;3.35;;;15.50;1.00;;;;;;5088593;28;20390;-58
2023/02/20 07:40:29;;;;;;;10.25;3.38;;;16.00;1.00;;;;;;5074583;28;20388;-58
2023/02/20 07:42:54;;;;;;;9.88;4.07;;;16.40;1.00;;;;;;5088397;28;20394;-58
2023/02/20 07:45:20;;;;;;;9.68;4.00;;;17.00;1.00;;;;;;5088991;28;20777;-58
2023/02/20 07:47:46;;;;;;;7.50;3.97;;;17.40;1.00;;;;;;5088277;28;20378;-58
2023/02/20 07:50:14;;;;;;;9.30;3.72;;;17.30;1.00;;;;;;5088532;28;20459;-58
2023/02/20 07:52:40;;;;;;;10.40;4.63;;;16.40;99.90;;;;;;5088745;28;20828;-58
2023/02/20 07:55:05;;;;;;;10.00;4.43;;;15.80;99.90;;;;;;5092959;28;20397;-58
2023/02/20 07:57:33;;;;;;;10.93;4.28;;;15.90;99.90;;;;;;5092302;28;20426;-58
2023/02/20 07:59:59;;;;;;;9.60;4.00;;;15.90;99.90;;;;;;5091644;28;21122;-58
2023/02/20 08:02:24;;;;;;;8.43;3.40;;;16.00;99.90;;;;;;5084127;28;20407;-58
2023/02/20 08:04:50;;;;;;;10.70;3.55;;;16.30;99.90;;;;;;5071600;28;20732;-58
2023/02/20 08:07:15;;;;;;;9.93;3.55;;;16.40;99.90;;;;;;5077737;28;20390;-58
2023/02/20 08:09:41;;;;;;;8.88;4.00;;;16.10;99.90;;;;;;5079976;28;20395;-58
2023/02/20 08:12:06;;;;;;;9.13;3.70;;;16.40;99.90;;;;;;5072098;28;20753;-58
2023/02/20 08:14:32;;;;;;;10.37;3.90;;;16.30;99.90;;;;;;5072260;28;20402;-59
2023/02/20 08:16:58;;;;;;;9.83;3.50;;;16.50;99.90;;;;;;5069169;28;20472;-58
2023/02/20 08:19:29;;;;;;;9.13;3.70;;;16.80;99.90;;;;;;5062186;28;20416;-58
2023/02/20 08:21:55;;;;;;;10.15;3.72;;;17.00;99.90;;;;;;5051747;28;20397;-58
2023/02/20 08:24:21;;;;;;;9.10;3.50;;;16.40;99.90;;;;;;5052908;28;20416;-58
2023/02/20 08:26:47;;;;;;;8.97;3.80;;;16.60;99.90;;;;;;5091156;28;20402;-58
2023/02/20 08:29:14;;;;;;;10.60;3.58;;;16.80;99.90;;;;;;5092862;28;20373;-59
2023/02/20 08:31:47;;;;;;;9.40;3.70;;;17.30;99.90;;;;;;5091972;28;20392;-58
2023/02/20 08:34:13;;;;;;;9.75;4.35;;;16.80;99.90;;;;;;5091841;28;20470;-58
2023/02/20 08:36:40;;;;;;;11.80;4.53;;;16.80;99.90;;;;;;5091769;28;20844;-58
2023/02/20 08:39:06;;;;;;;8.20;4.60;;;17.50;99.90;;;;;;5092119;28;20504;-59
2023/02/20 08:41:32;;;;;;;7.15;2.85;;;17.80;99.90;;;;;;5092010;28;20367;-59
2023/02/20 08:43:58;;;;;;;14.88;3.30;;;17.50;99.90;;;;;;5091134;28;20669;-59
2023/02/20 08:46:24;;;;;;;7.77;2.43;;;17.70;99.90;;;;;;5091286;28;20883;-58
2023/02/20 08:48:49;;;;;;;8.20;2.90;;;17.20;99.90;;;;;;5070874;28;20388;-58
2023/02/20 08:51:19;;;;;;;7.28;2.80;;;16.30;99.90;;;;;;5071461;28;20379;-59
2023/02/20 08:53:44;;;;;;;9.23;2.80;;;16.50;99.90;;;;;;5070247;28;20404;-59
2023/02/20 08:56:11;;;;;;;9.10;2.97;;;16.50;99.90;;;;;;5071571;28;20791;-60
2023/02/20 08:58:38;;;;;;;10.73;3.42;;;16.80;99.90;;;;;;5071465;28;20383;-58
2023/02/20 09:01:04;;;;;;;9.90;2.70;;;16.70;99.90;;;;;;5072845;28;20390;-60
2023/02/20 09:03:37;;;;;;;7.68;2.50;;;17.40;99.90;;;;;;5091284;28;20370;-59
2023/02/20 09:06:03;;;;;;;7.85;2.33;;;17.30;99.90;;;;;;5090792;28;20374;-58
2023/02/20 09:08:29;;;;;;;7.40;2.30;;;18.00;99.90;;;;;;5091205;28;20381;-58
2023/02/20 09:10:55;;;;;;;9.20;2.50;;;18.40;99.90;;;;;;5090648;28;20375;-59
2023/02/20 09:13:21;;;;;;;8.60;2.87;;;18.30;99.90;;;;;;5087045;28;20418;-59
2023/02/20 09:15:47;;;;;;;7.20;2.40;;;18.30;99.90;;;;;;5070352;28;20461;-60
2023/02/20 09:18:14;;;;;;;7.00;2.30;;;17.60;99.90;;;;;;5071096;28;20845;-58
2023/02/20 09:20:41;;;;;;;9.05;2.30;;;17.10;99.90;;;;;;5070725;28;20461;-59
2023/02/20 09:23:06;;;;;;;8.10;2.40;;;17.20;99.90;;;;;;5082933;28;20402;-59
2023/02/20 09:25:32;;;;;;;8.00;2.63;;;17.90;99.90;;;;;;5090718;28;20820;-59
2023/02/20 09:28:04;;;;;;;9.00;2.13;;;18.50;99.90;;;;;;5090128;28;20504;-59
2023/02/20 09:30:30;;;;;;;7.60;2.65;;;18.50;99.90;;;;;;5090741;28;20393;-59
2023/02/20 09:32:57;;;;;;;7.37;2.00;;;19.10;99.90;;;;;;5089696;28;20413;-59
2023/02/20 09:35:29;;;;;;;5.90;1.95;;;19.50;99.90;;;;;;5090715;28;20426;-59
2023/02/20 09:37:55;;;;;;;8.07;2.13;;;19.30;99.90;;;;;;5089257;28;20412;-59
2023/02/20 09:40:27;;;;;;;7.78;2.40;;;18.80;99.90;;;;;;5091125;28;20453;-59
2023/02/20 09:43:18;;;;;;;6.90;2.35;;;18.50;99.90;;;;;;5083315;28;20384;-59
2023/02/20 09:46:03;;;;;;;8.80;2.60;;;17.60;99.90;;;;;;5070244;28;20376;-59
2023/02/20 09:49:09;;;;;;;7.68;2.22;;;17.40;99.90;;;;;;5078282;28;20738;-59
2023/02/20 09:51:40;;;;;;;7.87;2.70;;;17.10;99.90;;;;;;5087231;28;20890;-59
2023/02/20 09:54:33;;;;;;;10.90;3.23;;;16.30;99.90;;;;;;5089055;28;20398;-58
2023/02/20 09:57:04;;;;;;;9.07;2.00;;;15.90;99.90;;;;;;5089311;28;20398;-58
2023/02/20 09:59:51;;;;;;;10.13;2.55;;;14.70;99.90;;;;;;5090409;28;20418;-58
2023/02/20 10:02:33;;;;;;;7.30;2.00;;;14.40;99.90;;;;;;5089747;28;20389;-59
2023/02/20 10:05:06;;;;;;;6.93;2.10;;;14.80;99.90;;;;;;5089226;28;21066;-59
2023/02/20 10:07:37;;;;;;;8.00;1.80;;;15.70;99.90;;;;;;5090322;28;20469;-59
2023/02/20 10:10:29;;;;;;;6.88;2.35;;;15.70;99.90;;;;;;5089742;28;20394;-58
2023/02/20 10:13:03;;;;;;;6.30;1.80;;;15.50;99.90;;;;;;5089077;28;20402;-58
2023/02/20 10:15:38;;;;;;;8.20;2.05;;;15.40;99.90;;;;;;5088911;28;20935;-59
2023/02/20 10:18:28;;;;;;;8.10;2.30;;;15.40;99.90;;;;;;5084972;28;20400;-58
2023/02/20 10:21:09;;;;;;;10.07;2.80;;;15.30;99.90;;;;;;5089221;28;20867;-58
2023/02/20 10:23:46;;;;;;;9.27;1.90;;;15.10;99.90;;;;;;5089432;28;20389;-58
2023/02/20 10:26:43;;;;;;;7.80;2.50;;;15.60;99.90;;;;;;5089700;28;20913;-59
2023/02/20 10:29:24;;;;;;;6.50;1.77;;;17.30;99.90;;;;;;5081232;28;20493;-59
2023/02/20 10:32:09;;;;;;;7.57;2.20;;;18.10;99.90;;;;;;5088942;28;20388;-58
2023/02/20 10:34:58;;;;;;;9.38;3.65;;;19.00;99.90;;;;;;5090092;28;20397;-58
2023/02/20 10:37:31;;;;;;;7.45;2.35;;;19.00;99.90;;;;;;5077590;28;20755;-59
2023/02/20 10:40:39;;;;;;;7.95;2.45;;;19.30;99.90;;;;;;5088906;28;20486;-58
2023/02/20 10:43:29;;;;;;;7.60;2.20;;;19.30;99.90;;;;;;5088864;28;20394;-58
2023/02/20 10:46:05;;;;;;;7.03;2.60;;;19.40;99.90;;;;;;5088675;28;20386;-59
2023/02/20 10:48:33;;;;;;;7.80;2.20;;;19.70;99.90;;;;;;5086866;28;20838;-58
2023/02/20 10:51:18;;;;;;;7.07;2.03;;;19.90;99.90;;;;;;5088759;28;20462;-59
2023/02/20 10:54:03;;;;;;;5.72;1.90;;;19.80;99.90;;;;;;5088228;28;20410;-58
2023/02/20 10:56:41;;;;;;;5.45;1.50;;;20.20;99.90;;;;;;5089458;28;20406;-58
2023/02/20 10:59:22;;;;;;;9.32;2.50;;;20.10;99.90;;;;;;5089430;28;20432;-59
2023/02/20 11:01:53;;;;;;;6.55;1.90;;;19.60;99.90;;;;;;5088417;28;20394;-58
2023/02/20 11:04:29;;;;;;;7.53;2.50;;;19.50;99.90;;;;;;5089142;28;20386;-58
2023/02/20 11:07:01;;;;;;;11.43;2.30;;;20.20;99.90;;;;;;5088871;28;20791;-58
2023/02/20 11:09:27;;;;;;;9.80;2.10;;;20.20;99.90;;;;;;5088931;28;20425;-59
2023/02/20 11:11:54;;;;;;;7.32;2.63;;;20.50;99.90;;;;;;5088377;28;20859;-59
2023/02/20 11:14:33;;;;;;;6.47;1.90;;;20.20;99.90;;;;;;5075945;28;20468;-58
2023/02/20 11:17:06;;;;;;;5.50;1.60;;;20.10;99.90;;;;;;5068571;28;20411;-60
2023/02/20 11:19:41;;;;;;;11.18;3.45;;;20.30;99.90;;;;;;5084582;28;20374;-59
2023/02/20 11:22:07;;;;;;;6.55;1.60;;;20.60;99.90;;;;;;5089027;28;20796;-60
2023/02/20 11:24:39;;;;;;;6.75;1.40;;;20.30;99.90;;;;;;5088920;28;20405;-58
2023/02/20 11:27:24;;;;;;;7.20;1.90;;;20.60;99.90;;;;;;5088219;28;20702;-60
2023/02/20 11:30:03;;;;;;;7.10;1.80;;;20.30;99.90;;;;;;5091976;28;20390;-58
2023/02/20 11:32:39;;;;;;;5.50;1.30;;;19.70;99.90;;;;;;5093162;28;20589;-58
2023/02/20 11:35:08;;;;;;;5.00;1.50;;;19.30;99.90;;;;;;5082149;28;20454;-59
2023/02/20 11:37:35;;;;;;;6.00;1.30;;;19.40;99.90;;;;;;5073162;28;20380;-58
2023/02/20 11:40:01;;;;;;;6.10;1.23;;;19.30;99.90;;;;;;5072738;28;20399;-58
2023/02/20 11:42:33;;;;;;;5.50;1.27;;;19.30;99.90;;;;;;5072454;28;20821;-58
2023/02/20 11:45:21;;;;;;;6.80;1.60;;;19.00;99.90;;;;;;5071517;28;20380;-58
2023/02/20 11:48:09;;;;;;;8.13;1.50;;;18.50;99.90;;;;;;5091668;28;20425;-58
2023/02/20 11:50:49;;;;;;;8.73;1.60;;;18.40;99.90;;;;;;5092522;28;20867;-58
2023/02/20 11:53:22;;;;;;;6.83;1.47;;;18.50;99.90;;;;;;5089206;28;20752;-58
2023/02/20 11:56:04;;;;;;;7.93;2.08;;;18.20;99.90;;;;;;5072195;28;20805;-58
2023/02/20 11:58:31;;;;;;;6.80;1.58;;;18.00;99.90;;;;;;5072216;28;20376;-58
2023/02/20 12:00:56;;;;;;;6.20;1.60;;;18.00;99.90;;;;;;5070411;28;20384;-58
2023/02/20 12:03:28;;;;;;;9.25;1.70;;;17.90;99.90;;;;;;5072506;28;20842;-58
2023/02/20 12:05:54;;;;;;;7.60;1.50;;;17.70;99.90;;;;;;5071687;28;20383;-58
2023/02/20 12:08:23;;;;;;;7.50;1.30;;;17.50;99.90;;;;;;5072310;28;20737;-58
2023/02/20 12:10:52;;;;;;;8.18;1.90;;;17.70;99.90;;;;;;5071368;28;20876;-58
2023/02/20 12:13:18;;;;;;;9.27;1.60;;;17.80;99.90;;;;;;5072265;28;20495;-58
2023/02/20 12:15:50;;;;;;;8.48;1.60;;;17.90;99.90;;;;;;5072158;28;20494;-58
2023/02/20 12:18:42;;;;;;;6.32;1.63;;;17.80;99.90;;;;;;5072041;28;20379;-58
2023/02/20 12:21:22;;;;;;;9.30;1.90;;;17.70;99.90;;;;;;5072323;28;20869;-57
2023/02/20 12:24:01;;;;;;;10.50;1.85;;;17.70;99.90;;;;;;5071266;28;20471;-58
2023/02/20 12:26:58;;;;;;;5.88;1.40;;;17.70;99.90;;;;;;5071981;28;20443;-58
2023/02/20 12:29:53;;;;;;;5.50;1.30;;;17.70;99.90;;;;;;5072133;28;20394;-58
2023/02/20 12:32:46;;;;;;;9.70;2.08;;;17.80;99.90;;;;;;5072285;28;20441;-58
2023/02/20 12:35:21;;;;;;;8.50;1.90;;;17.90;99.90;;;;;;5071901;28;20809;-58
2023/02/20 12:38:14;;;;;;;8.23;1.53;;;18.00;99.90;;;;;;5071062;28;20452;-58
2023/02/20 12:40:52;;;;;;;8.95;1.80;;;18.10;99.90;;;;;;5071113;28;20445;-58
2023/02/20 12:43:42;;;;;;;8.70;2.00;;;18.10;99.90;;;;;;5071759;28;20398;-58
2023/02/20 12:46:31;;;;;;;11.00;2.70;;;18.20;99.90;;;;;;5071503;28;20904;-58
2023/02/20 12:49:16;;;;;;;6.30;1.30;;;18.10;99.90;;;;;;5070939;28;20426;-58
2023/02/20 12:51:42;;;;;;;7.43;2.17;;;17.90;99.90;;;;;;5071180;28;20368;-58
2023/02/20 12:54:12;;;;;;;11.80;1.83;;;17.70;99.90;;;;;;5086744;28;20463;-58
2023/02/20 12:56:57;;;;;;;7.07;1.50;;;18.00;99.90;;;;;;5090782;28;20820;-58
2023/02/20 12:59:34;;;;;;;13.10;3.20;;;17.90;99.90;;;;;;5091994;28;20475;-57
2023/02/20 13:02:19;;;;;;;13.70;4.75;;;18.10;99.90;;;;;;5088005;28;20390;-58
2023/02/20 13:04:51;;;;;;;12.60;4.07;;;18.30;99.90;;;;;;5070536;28;20453;-58
2023/02/20 13:07:30;;;;;;;9.35;1.90;;;18.20;99.90;;;;;;5071824;28;20449;-58
2023/02/20 13:10:24;;;;;;;9.80;2.28;;;18.30;99.90;;;;;;5070782;28;20845;-59
2023/02/20 13:12:51;;;;;;;8.90;1.80;;;18.50;99.90;;;;;;5070625;28;20427;-59
2023/02/20 13:15:37;;;;;;;9.52;2.03;;;18.30;99.90;;;;;;5071038;28;20392;-59
2023/02/20 13:18:19;;;;;;;8.30;1.30;;;18.20;99.90;;;;;;5070029;28;20715;-62
2023/02/20 13:21:08;;;;;;;7.63;1.00;;;18.00;99.90;;;;;;5070246;28;20800;-58
2023/02/20 13:23:36;;;;;;;7.20;1.33;;;18.10;99.90;;;;;;5070787;28;20879;-58
2023/02/20 13:26:23;;;;;;;10.27;2.70;;;18.20;99.90;;;;;;5069881;28;20485;-58
2023/02/20 13:28:48;;;;;;;10.10;2.05;;;18.30;99.90;;;;;;5069785;28;20418;-59
2023/02/20 13:31:48;;;;;;;6.82;1.27;;;18.50;99.90;;;;;;5071104;28;20845;-58